DLH77B ELLX-EDDF
Flight info
| Callsign | DLH77B |
|---|---|
| Flight time | 0h 49m |
| Altitude | 23000 |
| Route | ASMOX1R ASMOX Y891 LULAT Y890 KULZO T847 IMCOM IMCOM1A |
| Aircraft | E195/M-SDE3GILORVW/S |
Departure
| Time | 2026-05-04 13:27 |
|---|---|
| Airport | Luxembourg-Findel International Airport (ELLX) |
Arrival
| Time | 2026-05-04 14:16 |
|---|---|
| Airport | Frankfurt Main Airport (EDDF) |
| Time | Latitude | Longitude | Altitude | Speed | Heading |
|---|---|---|---|---|---|
| 2026-05-04 13:02 | 49.63055 | 6.21263 | 1235 ft | 0 kts | 244° |
| 2026-05-04 13:06 | 49.63254 | 6.21987 | 1221 ft | 0 kts | 207° |
| 2026-05-04 13:21 | 49.63253 | 6.21987 | 1221 ft | 0 kts | 205° |
| 2026-05-04 13:21 | 49.63250 | 6.21985 | 1221 ft | 1 kts | 204° |
| 2026-05-04 13:22 | 49.63241 | 6.21979 | 1221 ft | 2 kts | 202° |
| 2026-05-04 13:22 | 49.63213 | 6.21979 | 1220 ft | 4 kts | 108° |
| 2026-05-04 13:22 | 49.63211 | 6.21999 | 1219 ft | 6 kts | 91° |
| 2026-05-04 13:22 | 49.63248 | 6.22173 | 1212 ft | 14 kts | 79° |
| 2026-05-04 13:23 | 49.63293 | 6.22335 | 1206 ft | 18 kts | 66° |
| 2026-05-04 13:23 | 49.63353 | 6.22515 | 1204 ft | 19 kts | 63° |
| 2026-05-04 13:23 | 49.63419 | 6.22700 | 1205 ft | 19 kts | 61° |
| 2026-05-04 13:23 | 49.63485 | 6.22873 | 1208 ft | 18 kts | 62° |
| 2026-05-04 13:24 | 49.63542 | 6.23033 | 1213 ft | 15 kts | 60° |
| 2026-05-04 13:24 | 49.63593 | 6.23169 | 1216 ft | 14 kts | 60° |
| 2026-05-04 13:24 | 49.63643 | 6.23301 | 1217 ft | 14 kts | 60° |
| 2026-05-04 13:25 | 49.63572 | 6.23515 | 1214 ft | 12 kts | 148° |
| 2026-05-04 13:25 | 49.63524 | 6.23517 | 1214 ft | 10 kts | 218° |
| 2026-05-04 13:25 | 49.63504 | 6.23470 | 1214 ft | 0 kts | 239° |
| 2026-05-04 13:26 | 49.63474 | 6.23389 | 1214 ft | 40 kts | 241° |
| 2026-05-04 13:26 | 49.63202 | 6.22655 | 1199 ft | 105 kts | 241° |
| 2026-05-04 13:26 | 49.62773 | 6.21508 | 1215 ft | 142 kts | 239° |
| 2026-05-04 13:26 | 49.62251 | 6.20089 | 1312 ft | 156 kts | 239° |
| 2026-05-04 13:27 | 49.61888 | 6.19130 | 1476 ft | 157 kts | 239° |
| 2026-05-04 13:27 | 49.61317 | 6.17615 | 1817 ft | 172 kts | 235° |
| 2026-05-04 13:27 | 49.60651 | 6.16042 | 2572 ft | 191 kts | 233° |
| 2026-05-04 13:27 | 49.60385 | 6.15480 | 2737 ft | 203 kts | 230° |
| 2026-05-04 13:28 | 49.58002 | 6.08716 | 4580 ft | 254 kts | 237° |
| 2026-05-04 13:28 | 49.57131 | 6.06360 | 5282 ft | 256 kts | 237° |
| 2026-05-04 13:28 | 49.56540 | 6.03766 | 6005 ft | 270 kts | 261° |
| 2026-05-04 13:29 | 49.56728 | 6.01854 | 6490 ft | 281 kts | 285° |
| 2026-05-04 13:29 | 49.58456 | 5.98804 | 7179 ft | 303 kts | 323° |
| 2026-05-04 13:29 | 49.60538 | 5.97916 | 7417 ft | 324 kts | 5° |
| 2026-05-04 13:29 | 49.62526 | 5.98954 | 9002 ft | 309 kts | 29° |
| 2026-05-04 13:30 | 49.64429 | 6.00777 | 9828 ft | 328 kts | 35° |
| 2026-05-04 13:30 | 49.66292 | 6.02696 | 11089 ft | 329 kts | 36° |
| 2026-05-04 13:30 | 49.67543 | 6.03995 | 11830 ft | 334 kts | 35° |
| 2026-05-04 13:30 | 49.70116 | 6.06655 | 13311 ft | 338 kts | 35° |
| 2026-05-04 13:31 | 49.72088 | 6.08697 | 13973 ft | 343 kts | 34° |
| 2026-05-04 13:31 | 49.74062 | 6.10732 | 13929 ft | 344 kts | 34° |
| 2026-05-04 13:31 | 49.76099 | 6.12845 | 14547 ft | 355 kts | 34° |
| 2026-05-04 13:31 | 49.78156 | 6.14983 | 15372 ft | 368 kts | 34° |
| 2026-05-04 13:32 | 49.80280 | 6.17178 | 16273 ft | 376 kts | 34° |
| 2026-05-04 13:32 | 49.82460 | 6.19454 | 17211 ft | 381 kts | 34° |
| 2026-05-04 13:32 | 49.84663 | 6.21743 | 18076 ft | 389 kts | 34° |
| 2026-05-04 13:32 | 49.86885 | 6.24061 | 18990 ft | 393 kts | 34° |
| 2026-05-04 13:33 | 49.89168 | 6.26441 | 19816 ft | 400 kts | 34° |
| 2026-05-04 13:33 | 49.91517 | 6.28777 | 20596 ft | 408 kts | 26° |
| 2026-05-04 13:33 | 49.94173 | 6.30347 | 21385 ft | 412 kts | 21° |
| 2026-05-04 13:33 | 49.96772 | 6.32247 | 22211 ft | 417 kts | 24° |
| 2026-05-04 13:34 | 49.99423 | 6.34127 | 22955 ft | 422 kts | 24° |
| 2026-05-04 13:34 | 50.02076 | 6.36034 | 23702 ft | 427 kts | 23° |
| 2026-05-04 13:34 | 50.04762 | 6.37957 | 23976 ft | 430 kts | 24° |
| 2026-05-04 13:34 | 50.07479 | 6.39911 | 23952 ft | 430 kts | 25° |
| 2026-05-04 13:35 | 50.09970 | 6.42469 | 23945 ft | 431 kts | 40° |
| 2026-05-04 13:35 | 50.14542 | 6.48506 | 23960 ft | 432 kts | 40° |
| 2026-05-04 13:35 | 50.16823 | 6.51506 | 23976 ft | 432 kts | 40° |
| 2026-05-04 13:36 | 50.19131 | 6.54535 | 23971 ft | 431 kts | 40° |
| 2026-05-04 13:36 | 50.21421 | 6.57547 | 23985 ft | 431 kts | 40° |
| 2026-05-04 13:36 | 50.23688 | 6.60532 | 23975 ft | 432 kts | 40° |
| 2026-05-04 13:36 | 50.25987 | 6.63560 | 23968 ft | 432 kts | 40° |
| 2026-05-04 13:37 | 50.28274 | 6.66582 | 23974 ft | 432 kts | 40° |
| 2026-05-04 13:37 | 50.30550 | 6.69585 | 23974 ft | 432 kts | 41° |
| 2026-05-04 13:37 | 50.32650 | 6.72954 | 23914 ft | 430 kts | 58° |
| 2026-05-04 13:37 | 50.33537 | 6.75670 | 23946 ft | 424 kts | 73° |
| 2026-05-04 13:38 | 50.33975 | 6.81637 | 23964 ft | 414 kts | 99° |
| 2026-05-04 13:38 | 50.33541 | 6.86108 | 24003 ft | 411 kts | 108° |
| 2026-05-04 13:38 | 50.32473 | 6.90146 | 23977 ft | 403 kts | 121° |
| 2026-05-04 13:38 | 50.31260 | 6.94151 | 24001 ft | 407 kts | 119° |
| 2026-05-04 13:39 | 50.30062 | 6.98134 | 23980 ft | 405 kts | 119° |
| 2026-05-04 13:39 | 50.28879 | 7.02098 | 23991 ft | 405 kts | 119° |
| 2026-05-04 13:39 | 50.27687 | 7.06088 | 23991 ft | 405 kts | 119° |
| 2026-05-04 13:39 | 50.26499 | 7.10066 | 23980 ft | 405 kts | 119° |
| 2026-05-04 13:40 | 50.25304 | 7.14063 | 23987 ft | 405 kts | 119° |
| 2026-05-04 13:40 | 50.24112 | 7.18038 | 23977 ft | 406 kts | 119° |
| 2026-05-04 13:40 | 50.23318 | 7.20678 | 23977 ft | 405 kts | 119° |
| 2026-05-04 13:41 | 50.19534 | 7.33275 | 23980 ft | 407 kts | 117° |
| 2026-05-04 13:41 | 50.18559 | 7.37366 | 23980 ft | 408 kts | 113° |
| 2026-05-04 13:42 | 50.16674 | 7.45341 | 23959 ft | 380 kts | 114° |
| 2026-05-04 13:42 | 50.15765 | 7.49148 | 23955 ft | 376 kts | 114° |
| 2026-05-04 13:42 | 50.14847 | 7.52979 | 23968 ft | 377 kts | 114° |
| 2026-05-04 13:42 | 50.13925 | 7.56821 | 23966 ft | 378 kts | 114° |
| 2026-05-04 13:43 | 50.13013 | 7.60616 | 23966 ft | 380 kts | 114° |
| 2026-05-04 13:43 | 50.12083 | 7.64484 | 23961 ft | 380 kts | 114° |
| 2026-05-04 13:43 | 50.11140 | 7.68252 | 23628 ft | 371 kts | 121° |
| 2026-05-04 13:43 | 50.09823 | 7.71531 | 22120 ft | 357 kts | 129° |
| 2026-05-04 13:44 | 50.08785 | 7.74926 | 20418 ft | 361 kts | 103° |
| 2026-05-04 13:44 | 50.08379 | 7.78689 | 18932 ft | 348 kts | 108° |
| 2026-05-04 13:44 | 50.07715 | 7.82145 | 17458 ft | 337 kts | 114° |
| 2026-05-04 13:44 | 50.06566 | 7.85121 | 15998 ft | 317 kts | 142° |
| 2026-05-04 13:45 | 50.04792 | 7.86768 | 14824 ft | 295 kts | 162° |
| 2026-05-04 13:45 | 50.02916 | 7.87820 | 13591 ft | 285 kts | 163° |
| 2026-05-04 13:45 | 50.01086 | 7.88819 | 12308 ft | 280 kts | 163° |
| 2026-05-04 13:45 | 49.99309 | 7.89760 | 11143 ft | 272 kts | 163° |
| 2026-05-04 13:46 | 49.97515 | 7.90683 | 11328 ft | 269 kts | 163° |
| 2026-05-04 13:46 | 49.95700 | 7.91613 | 11072 ft | 284 kts | 163° |
| 2026-05-04 13:46 | 49.93866 | 7.92554 | 10864 ft | 272 kts | 163° |
| 2026-05-04 13:46 | 49.92167 | 7.93668 | 10948 ft | 269 kts | 144° |
| 2026-05-04 13:47 | 49.91058 | 7.96046 | 11086 ft | 282 kts | 109° |
| 2026-05-04 13:47 | 49.90934 | 7.99126 | 10966 ft | 295 kts | 84° |
| 2026-05-04 13:47 | 49.91257 | 8.02228 | 10985 ft | 293 kts | 84° |
| 2026-05-04 13:47 | 49.91582 | 8.05377 | 10936 ft | 292 kts | 83° |
| 2026-05-04 13:48 | 49.91902 | 8.08451 | 10950 ft | 292 kts | 83° |
| 2026-05-04 13:48 | 49.92224 | 8.11582 | 10953 ft | 292 kts | 83° |
| 2026-05-04 13:48 | 49.92542 | 8.14674 | 10953 ft | 292 kts | 83° |
| 2026-05-04 13:48 | 49.92866 | 8.17813 | 10952 ft | 292 kts | 83° |
| 2026-05-04 13:49 | 49.93184 | 8.20894 | 10903 ft | 286 kts | 83° |
| 2026-05-04 13:49 | 49.93504 | 8.23956 | 10303 ft | 289 kts | 83° |
| 2026-05-04 13:49 | 49.93815 | 8.26955 | 9950 ft | 280 kts | 83° |
| 2026-05-04 13:49 | 49.94113 | 8.29821 | 9918 ft | 260 kts | 83° |
| 2026-05-04 13:50 | 49.94398 | 8.32511 | 9911 ft | 239 kts | 83° |
| 2026-05-04 13:50 | 49.94659 | 8.34909 | 9907 ft | 217 kts | 83° |
| 2026-05-04 13:50 | 49.94912 | 8.37115 | 9949 ft | 200 kts | 83° |
| 2026-05-04 13:50 | 49.95168 | 8.39289 | 9974 ft | 212 kts | 86° |
| 2026-05-04 13:51 | 49.95406 | 8.41728 | 10106 ft | 251 kts | 83° |
| 2026-05-04 13:51 | 49.95709 | 8.44511 | 9999 ft | 269 kts | 83° |
| 2026-05-04 13:51 | 49.96014 | 8.47417 | 10016 ft | 277 kts | 83° |
| 2026-05-04 13:51 | 49.96319 | 8.50377 | 9987 ft | 278 kts | 83° |
| 2026-05-04 13:52 | 49.96930 | 8.56308 | 9987 ft | 279 kts | 83° |
| 2026-05-04 13:52 | 49.97241 | 8.59308 | 9923 ft | 272 kts | 83° |
| 2026-05-04 13:52 | 49.97534 | 8.62153 | 9106 ft | 273 kts | 83° |
| 2026-05-04 13:53 | 49.97816 | 8.65015 | 8263 ft | 265 kts | 84° |
| 2026-05-04 13:53 | 49.98081 | 8.67798 | 7386 ft | 261 kts | 83° |
| 2026-05-04 13:53 | 49.98321 | 8.70540 | 6537 ft | 256 kts | 84° |
| 2026-05-04 13:54 | 49.98757 | 8.75914 | 5199 ft | 249 kts | 84° |
| 2026-05-04 13:54 | 49.98967 | 8.78564 | 4599 ft | 249 kts | 84° |
| 2026-05-04 13:54 | 49.99038 | 8.79449 | 4411 ft | 249 kts | 84° |
| 2026-05-04 13:55 | 50.00047 | 8.92188 | 3958 ft | 248 kts | 84° |
| 2026-05-04 13:55 | 50.00259 | 8.94860 | 3960 ft | 247 kts | 84° |
| 2026-05-04 13:56 | 50.00470 | 8.97506 | 3956 ft | 247 kts | 84° |
| 2026-05-04 13:56 | 50.00725 | 9.00141 | 3945 ft | 244 kts | 79° |
| 2026-05-04 13:56 | 50.02462 | 9.04271 | 4006 ft | 231 kts | 44° |
| 2026-05-04 13:57 | 50.03609 | 9.05982 | 3945 ft | 230 kts | 44° |
| 2026-05-04 13:57 | 50.04763 | 9.07691 | 3983 ft | 230 kts | 44° |
| 2026-05-04 13:58 | 50.08801 | 9.08277 | 3971 ft | 226 kts | 304° |
| 2026-05-04 13:58 | 50.09728 | 9.03824 | 4105 ft | 209 kts | 284° |
| 2026-05-04 13:58 | 50.10500 | 9.01956 | 3828 ft | 208 kts | 324° |
| 2026-05-04 13:59 | 50.11753 | 9.01019 | 4409 ft | 197 kts | 330° |
| 2026-05-04 13:59 | 50.12757 | 8.99782 | 4774 ft | 176 kts | 315° |
| 2026-05-04 13:59 | 50.13940 | 8.96674 | 4227 ft | 176 kts | 277° |
| 2026-05-04 14:00 | 50.13688 | 8.94769 | 4087 ft | 193 kts | 245° |
| 2026-05-04 14:00 | 50.12708 | 8.90731 | 4340 ft | 205 kts | 252° |
| 2026-05-04 14:00 | 50.12410 | 8.88599 | 4234 ft | 200 kts | 258° |
| 2026-05-04 14:01 | 50.12185 | 8.86511 | 4160 ft | 191 kts | 255° |
| 2026-05-04 14:01 | 50.11805 | 8.84549 | 4154 ft | 189 kts | 251° |
| 2026-05-04 14:01 | 50.10489 | 8.81024 | 4022 ft | 189 kts | 234° |
| 2026-05-04 14:02 | 50.09742 | 8.79330 | 4090 ft | 190 kts | 233° |
| 2026-05-04 14:02 | 50.09023 | 8.77596 | 3934 ft | 189 kts | 235° |
| 2026-05-04 14:02 | 50.08353 | 8.75838 | 3832 ft | 190 kts | 242° |
| 2026-05-04 14:02 | 50.07857 | 8.73950 | 3668 ft | 187 kts | 252° |
| 2026-05-04 14:03 | 50.07521 | 8.72040 | 4057 ft | 187 kts | 238° |
| 2026-05-04 14:03 | 50.06345 | 8.70953 | 4148 ft | 209 kts | 209° |
| 2026-05-04 14:03 | 50.05190 | 8.69548 | 3846 ft | 212 kts | 217° |
| 2026-05-04 14:03 | 50.03909 | 8.68510 | 3742 ft | 211 kts | 195° |
| 2026-05-04 14:04 | 50.01556 | 8.69320 | 3800 ft | 206 kts | 164° |
| 2026-05-04 14:04 | 50.00226 | 8.69966 | 3790 ft | 200 kts | 163° |
| 2026-05-04 14:04 | 49.98458 | 8.70848 | 3787 ft | 198 kts | 164° |
| 2026-05-04 14:05 | 49.95889 | 8.72335 | 3743 ft | 200 kts | 146° |
| 2026-05-04 14:05 | 49.95217 | 8.74152 | 3775 ft | 200 kts | 104° |
| 2026-05-04 14:05 | 49.95015 | 8.76326 | 3787 ft | 204 kts | 97° |
| 2026-05-04 14:06 | 49.95365 | 8.78413 | 3765 ft | 202 kts | 63° |
| 2026-05-04 14:06 | 49.96014 | 8.80353 | 3793 ft | 205 kts | 64° |
| 2026-05-04 14:06 | 49.96646 | 8.82303 | 3794 ft | 203 kts | 64° |
| 2026-05-04 14:06 | 49.97286 | 8.84270 | 3775 ft | 204 kts | 64° |
| 2026-05-04 14:07 | 49.97919 | 8.86233 | 3786 ft | 204 kts | 64° |
| 2026-05-04 14:07 | 49.98559 | 8.88214 | 3779 ft | 205 kts | 64° |
| 2026-05-04 14:07 | 49.99191 | 8.90174 | 3776 ft | 205 kts | 64° |
| 2026-05-04 14:07 | 49.99836 | 8.92172 | 3715 ft | 204 kts | 64° |
| 2026-05-04 14:08 | 50.00470 | 8.94128 | 3783 ft | 204 kts | 64° |
| 2026-05-04 14:08 | 50.01317 | 8.95864 | 3698 ft | 203 kts | 34° |
| 2026-05-04 14:08 | 50.02647 | 8.96274 | 3787 ft | 197 kts | 351° |
| 2026-05-04 14:08 | 50.03967 | 8.95711 | 3786 ft | 196 kts | 343° |
| 2026-05-04 14:09 | 50.06513 | 8.94637 | 3760 ft | 187 kts | 344° |
| 2026-05-04 14:09 | 50.07768 | 8.94102 | 3775 ft | 187 kts | 343° |
| 2026-05-04 14:10 | 50.10290 | 8.93035 | 3761 ft | 188 kts | 343° |
| 2026-05-04 14:10 | 50.11529 | 8.92400 | 3725 ft | 189 kts | 331° |
| 2026-05-04 14:10 | 50.12303 | 8.90841 | 3724 ft | 182 kts | 285° |
| 2026-05-04 14:10 | 50.12458 | 8.88894 | 3783 ft | 184 kts | 278° |
| 2026-05-04 14:11 | 50.12501 | 8.86937 | 3701 ft | 182 kts | 256° |
| 2026-05-04 14:11 | 50.11962 | 8.83111 | 3701 ft | 181 kts | 267° |
| 2026-05-04 14:11 | 50.11357 | 8.81478 | 3765 ft | 180 kts | 226° |
| 2026-05-04 14:12 | 50.10535 | 8.79999 | 3835 ft | 178 kts | 232° |
| 2026-05-04 14:12 | 50.09815 | 8.78402 | 3426 ft | 187 kts | 236° |
| 2026-05-04 14:12 | 50.08442 | 8.75263 | 2942 ft | 158 kts | 237° |
| 2026-05-04 14:13 | 50.07887 | 8.73868 | 2727 ft | 144 kts | 239° |
| 2026-05-04 14:13 | 50.07380 | 8.72553 | 2428 ft | 141 kts | 241° |
| 2026-05-04 14:13 | 50.07004 | 8.71166 | 2076 ft | 135 kts | 251° |
| 2026-05-04 14:13 | 50.06716 | 8.69830 | 1781 ft | 127 kts | 250° |
| 2026-05-04 14:14 | 50.06421 | 8.68563 | 1548 ft | 123 kts | 249° |
| 2026-05-04 14:14 | 50.05776 | 8.66018 | 1355 ft | 136 kts | 249° |
| 2026-05-04 14:14 | 50.05450 | 8.64624 | 1226 ft | 139 kts | 248° |
| 2026-05-04 14:15 | 50.04759 | 8.61815 | 771 ft | 137 kts | 246° |
| 2026-05-04 14:15 | 50.04115 | 8.59101 | 444 ft | 130 kts | 248° |
| 2026-05-04 14:16 | 50.03534 | 8.56704 | 344 ft | 90 kts | 252° |
| 2026-05-04 14:16 | 50.03376 | 8.56016 | 340 ft | 45 kts | 251° |
| 2026-05-04 14:17 | 50.03194 | 8.55238 | 336 ft | 33 kts | 253° |
| 2026-05-04 14:17 | 50.03184 | 8.54918 | 333 ft | 27 kts | 278° |
| 2026-05-04 14:17 | 50.03191 | 8.54857 | 334 ft | 0 kts | 280° |
| 2026-05-04 14:18 | 50.03191 | 8.54856 | 334 ft | 1 kts | 280° |
| 2026-05-04 14:18 | 50.03332 | 8.54472 | 333 ft | 0 kts | 335° |
| 2026-05-04 14:19 | 50.03349 | 8.54461 | 333 ft | 20 kts | 336° |
| 2026-05-04 14:19 | 50.03566 | 8.54334 | 338 ft | 26 kts | 347° |
| 2026-05-04 14:19 | 50.03592 | 8.54321 | 339 ft | 0 kts | 339° |
| 2026-05-04 14:20 | 50.03593 | 8.54321 | 339 ft | 0 kts | 340° |
| 2026-05-04 14:21 | 50.03621 | 8.54311 | 339 ft | 5 kts | 3° |
| 2026-05-04 14:21 | 50.03663 | 8.54357 | 340 ft | 10 kts | 57° |
| 2026-05-04 14:21 | 50.03698 | 8.54489 | 340 ft | 15 kts | 70° |
| 2026-05-04 14:21 | 50.03744 | 8.54675 | 342 ft | 20 kts | 69° |
| 2026-05-04 14:22 | 50.03796 | 8.54898 | 346 ft | 23 kts | 70° |
| 2026-05-04 14:22 | 50.03856 | 8.55146 | 350 ft | 25 kts | 67° |
| 2026-05-04 14:22 | 50.03904 | 8.55363 | 351 ft | 19 kts | 63° |
| 2026-05-04 14:22 | 50.03962 | 8.55568 | 351 ft | 21 kts | 57° |
| 2026-05-04 14:23 | 50.04055 | 8.55979 | 354 ft | 22 kts | 72° |
| 2026-05-04 14:23 | 50.04090 | 8.56127 | 356 ft | 0 kts | 70° |
| 2026-05-04 14:23 | 50.04091 | 8.56128 | 356 ft | 0 kts | 71° |
| 2026-05-04 14:24 | 50.04091 | 8.56129 | 356 ft | 2 kts | 70° |
| 2026-05-04 14:24 | 50.04137 | 8.56275 | 358 ft | 17 kts | 35° |
| 2026-05-04 14:24 | 50.04210 | 8.56253 | 360 ft | 14 kts | 353° |
| 2026-05-04 14:24 | 50.04256 | 8.56232 | 361 ft | 0 kts | 340° |
| 2026-05-04 14:25 | 50.04264 | 8.56227 | 361 ft | 6 kts | 331° |
| 2026-05-04 14:26 | 50.04304 | 8.56100 | 362 ft | 10 kts | 285° |
| 2026-05-04 14:26 | 50.04355 | 8.56043 | 363 ft | 16 kts | 344° |
| 2026-05-04 14:26 | 50.04442 | 8.56085 | 365 ft | 12 kts | 68° |
| 2026-05-04 14:26 | 50.04407 | 8.56151 | 364 ft | 8 kts | 149° |
| 2026-05-04 14:27 | 50.04395 | 8.56162 | 364 ft | 0 kts | 153° |